sensor_id;sensor_type;location;lat;lon;timestamp;temperature;humidity
53653;DHT22;39553;52.954;5.932;2023-08-01T14:28:02;17.60;99.90
53653;DHT22;39553;52.954;5.932;2023-08-01T14:40:31;18.30;99.90
53653;DHT22;39553;52.954;5.932;2023-08-01T14:42:59;17.70;99.90
53653;DHT22;39553;52.954;5.932;2023-08-01T14:47:52;18.10;99.60
53653;DHT22;39553;52.954;5.932;2023-08-01T14:50:18;18.10;71.80
53653;DHT22;39553;52.954;5.932;2023-08-01T14:52:44;18.10;60.30
53653;DHT22;39553;52.954;5.932;2023-08-01T14:55:10;18.00;64.90
53653;DHT22;39553;52.954;5.932;2023-08-01T14:57:37;18.10;58.40
53653;DHT22;39553;52.954;5.932;2023-08-01T15:00:03;18.30;36.90
53653;DHT22;39553;52.954;5.932;2023-08-01T15:02:29;18.40;23.70
53653;DHT22;39553;52.954;5.932;2023-08-01T15:04:56;18.40;17.50
53653;DHT22;39553;52.954;5.932;2023-08-01T15:07:23;18.40;12.10
53653;DHT22;39553;52.954;5.932;2023-08-01T15:09:49;18.40;5.00
53653;DHT22;39553;52.954;5.932;2023-08-01T15:12:16;18.50;1.00
53653;DHT22;39553;52.954;5.932;2023-08-01T15:14:42;18.30;1.00
53653;DHT22;39553;52.954;5.932;2023-08-01T15:17:08;18.20;1.00
53653;DHT22;39553;52.954;5.932;2023-08-01T15:19:35;18.20;1.00
53653;DHT22;39553;52.954;5.932;2023-08-01T15:22:01;18.20;1.00
53653;DHT22;39553;52.954;5.932;2023-08-01T15:24:30;18.20;1.00
53653;DHT22;39553;52.954;5.932;2023-08-01T15:26:55;18.40;1.00
53653;DHT22;39553;52.954;5.932;2023-08-01T15:29:21;18.50;1.00
53653;DHT22;39553;52.954;5.932;2023-08-01T15:31:47;18.60;1.00
53653;DHT22;39553;52.954;5.932;2023-08-01T15:34:13;18.60;1.00
53653;DHT22;39553;52.954;5.932;2023-08-01T15:36:39;18.60;1.00
53653;DHT22;39553;52.954;5.932;2023-08-01T15:39:05;18.60;1.00
53653;DHT22;39553;52.954;5.932;2023-08-01T15:41:31;18.50;1.00
53653;DHT22;39553;52.954;5.932;2023-08-01T15:43:56;18.50;1.00
53653;DHT22;39553;52.954;5.932;2023-08-01T15:46:22;18.50;1.00
53653;DHT22;39553;52.954;5.932;2023-08-01T15:48:49;18.60;1.00
53653;DHT22;39553;52.954;5.932;2023-08-01T15:51:15;18.70;1.00
53653;DHT22;39553;52.954;5.932;2023-08-01T15:53:41;18.70;1.00
53653;DHT22;39553;52.954;5.932;2023-08-01T15:56:08;18.70;1.00
53653;DHT22;39553;52.954;5.932;2023-08-01T15:58:34;18.70;1.00
53653;DHT22;39553;52.954;5.932;2023-08-01T16:01:00;18.70;1.00
53653;DHT22;39553;52.954;5.932;2023-08-01T16:03:27;18.70;1.00
53653;DHT22;39553;52.954;5.932;2023-08-01T16:05:53;18.50;1.00
53653;DHT22;39553;52.954;5.932;2023-08-01T16:08:19;18.40;1.00
53653;DHT22;39553;52.954;5.932;2023-08-01T16:10:45;18.20;1.00
53653;DHT22;39553;52.954;5.932;2023-08-01T16:13:12;18.20;1.00
53653;DHT22;39553;52.954;5.932;2023-08-01T16:15:39;18.10;1.00
53653;DHT22;39553;52.954;5.932;2023-08-01T16:18:05;17.90;1.00
53653;DHT22;39553;52.954;5.932;2023-08-01T16:20:32;17.80;1.00
53653;DHT22;39553;52.954;5.932;2023-08-01T16:22:58;17.80;1.00
53653;DHT22;39553;52.954;5.932;2023-08-01T16:25:24;17.90;1.00
53653;DHT22;39553;52.954;5.932;2023-08-01T16:27:50;18.00;1.00
53653;DHT22;39553;52.954;5.932;2023-08-01T16:30:17;18.00;1.00
53653;DHT22;39553;52.954;5.932;2023-08-01T16:32:43;18.10;1.00
53653;DHT22;39553;52.954;5.932;2023-08-01T16:35:08;18.10;1.00
53653;DHT22;39553;52.954;5.932;2023-08-01T16:37:34;18.10;1.00
53653;DHT22;39553;52.954;5.932;2023-08-01T16:40:00;18.10;1.00
53653;DHT22;39553;52.954;5.932;2023-08-01T16:42:26;18.20;1.00
53653;DHT22;39553;52.954;5.932;2023-08-01T16:44:52;18.20;1.00
53653;DHT22;39553;52.954;5.932;2023-08-01T16:47:18;18.20;1.00
53653;DHT22;39553;52.954;5.932;2023-08-01T16:49:48;18.20;1.00
53653;DHT22;39553;52.954;5.932;2023-08-01T16:52:15;18.20;1.00
53653;DHT22;39553;52.954;5.932;2023-08-01T16:54:40;18.20;1.00
53653;DHT22;39553;52.954;5.932;2023-08-01T16:57:06;18.20;1.00
53653;DHT22;39553;52.954;5.932;2023-08-01T16:59:37;18.20;1.00
53653;DHT22;39553;52.954;5.932;2023-08-01T17:02:03;18.10;1.00
53653;DHT22;39553;52.954;5.932;2023-08-01T17:04:30;18.00;1.00
53653;DHT22;39553;52.954;5.932;2023-08-01T17:06:56;18.10;1.00
53653;DHT22;39553;52.954;5.932;2023-08-01T17:09:22;18.00;1.00
53653;DHT22;39553;52.954;5.932;2023-08-01T17:11:47;18.00;1.00
53653;DHT22;39553;52.954;5.932;2023-08-01T17:14:13;17.90;1.00
53653;DHT22;39553;52.954;5.932;2023-08-01T17:16:39;17.70;1.00
53653;DHT22;39553;52.954;5.932;2023-08-01T17:19:05;18.10;1.00
53653;DHT22;39553;52.954;5.932;2023-08-01T17:21:31;18.00;1.00
53653;DHT22;39553;52.954;5.932;2023-08-01T17:23:57;18.00;1.00
53653;DHT22;39553;52.954;5.932;2023-08-01T17:26:23;17.90;1.00
53653;DHT22;39553;52.954;5.932;2023-08-01T17:28:49;17.90;1.00
53653;DHT22;39553;52.954;5.932;2023-08-01T17:31:14;17.80;1.00
53653;DHT22;39553;52.954;5.932;2023-08-01T17:33:41;17.80;1.00
53653;DHT22;39553;52.954;5.932;2023-08-01T17:36:08;17.80;1.00
